createdAt,value
2017-05-14T00:01:09.797Z,23.34
2017-05-14T00:02:22.205Z,23.31
2017-05-14T00:03:35.283Z,23.18
2017-05-14T00:04:48.180Z,23.19
2017-05-14T00:06:01.064Z,23.18
2017-05-14T00:07:13.945Z,23.01
2017-05-14T00:08:26.376Z,23
2017-05-14T00:09:39.448Z,23.09
2017-05-14T00:10:51.837Z,23.04
2017-05-14T00:12:04.228Z,22.91
2017-05-14T00:13:17.113Z,22.93
2017-05-14T00:14:30.186Z,22.89
2017-05-14T00:15:43.061Z,22.96
2017-05-14T00:16:55.938Z,22.93
2017-05-14T00:18:08.335Z,22.82
2017-05-14T00:19:20.724Z,22.85
2017-05-14T00:20:33.109Z,22.69
2017-05-14T00:21:45.984Z,22.69
2017-05-14T00:22:58.868Z,22.79
2017-05-14T00:24:11.751Z,22.78
2017-05-14T00:25:24.627Z,22.7
2017-05-14T00:26:37.499Z,22.7
2017-05-14T00:27:50.378Z,22.7
2017-05-14T00:29:03.262Z,22.66
2017-05-14T00:30:16.129Z,22.74
2017-05-14T00:31:28.999Z,22.66
2017-05-14T00:32:41.877Z,22.63
2017-05-14T00:33:54.753Z,22.57
2017-05-14T00:35:07.134Z,22.51
2017-05-14T00:36:19.820Z,22.54
2017-05-14T00:37:32.703Z,22.52
2017-05-14T00:38:45.582Z,22.38
2017-05-14T00:39:58.456Z,22.52
2017-05-14T00:41:11.329Z,22.45
2017-05-14T00:42:23.532Z,22.45
2017-05-14T00:43:36.406Z,22.51
2017-05-14T00:44:48.791Z,22.39
2017-05-14T00:46:01.670Z,22.39
2017-05-14T00:47:14.839Z,22.38
2017-05-14T00:48:27.673Z,22.38
2017-05-14T00:49:40.459Z,22.39
2017-05-14T00:50:53.240Z,22.44
2017-05-14T00:52:06.024Z,22.44
2017-05-14T00:53:17.846Z,22.41
2017-05-14T00:54:30.630Z,22.48
2017-05-14T00:55:43.416Z,22.46
2017-05-14T00:56:55.717Z,22.44
2017-05-14T00:58:08.017Z,22.39
2017-05-14T00:59:20.314Z,22.46
2017-05-14T01:00:33.094Z,22.46
2017-05-14T01:01:45.882Z,22.52
2017-05-14T01:02:58.666Z,22.52
2017-05-14T01:04:11.661Z,22.6
2017-05-14T01:05:24.445Z,22.6
2017-05-14T01:06:37.238Z,22.59
2017-05-14T01:07:49.540Z,22.59
2017-05-14T01:09:02.523Z,22.52
2017-05-14T01:10:15.313Z,22.64
2017-05-14T01:11:27.614Z,22.64
2017-05-14T01:12:40.398Z,22.61
2017-05-14T01:13:53.183Z,22.59
2017-05-14T01:15:05.688Z,22.61
2017-05-14T01:16:17.994Z,22.59
2017-05-14T01:17:30.784Z,22.59
2017-05-14T01:18:43.583Z,22.57
2017-05-14T01:19:55.885Z,22.59
2017-05-14T01:21:08.671Z,22.57
2017-05-14T01:22:20.972Z,22.49
2017-05-14T01:23:33.757Z,22.46
2017-05-14T01:24:46.538Z,22.35
2017-05-14T01:25:58.845Z,22.45
2017-05-14T01:27:11.629Z,22.45
2017-05-14T01:28:24.414Z,22.35
2017-05-14T01:29:37.198Z,22.44
2017-05-14T01:30:50.281Z,22.39
2017-05-14T01:32:02.577Z,22.38
2017-05-14T01:33:15.362Z,22.38
2017-05-14T01:34:28.157Z,22.41
2017-05-14T01:35:40.952Z,22.35
2017-05-14T01:36:53.943Z,22.42
2017-05-14T01:38:06.730Z,22.41
2017-05-14T01:39:19.522Z,22.38
2017-05-14T01:40:32.312Z,22.26
2017-05-14T01:41:45.164Z,22.31
2017-05-14T01:42:57.998Z,22.33
2017-05-14T01:44:10.784Z,22.27
2017-05-14T01:45:23.580Z,22.29
2017-05-14T01:46:35.890Z,22.19
2017-05-14T01:47:48.194Z,22.19
2017-05-14T01:49:00.978Z,22.23
2017-05-14T01:50:13.766Z,22.17
2017-05-14T01:51:26.553Z,22.14
2017-05-14T01:52:39.542Z,22.11
2017-05-14T01:53:52.333Z,22.01
2017-05-14T01:55:05.130Z,21.99
2017-05-14T01:56:17.439Z,22.01
2017-05-14T01:57:29.265Z,22.02
2017-05-14T01:58:42.306Z,21.9
2017-05-14T01:59:54.612Z,21.99
2017-05-14T02:01:07.405Z,21.91
2017-05-14T02:02:19.709Z,21.94
2017-05-14T02:03:32.493Z,21.91
2017-05-14T02:04:44.795Z,21.93
2017-05-14T02:05:57.589Z,21.98
2017-05-14T02:07:10.384Z,21.91
2017-05-14T02:08:22.691Z,21.98
2017-05-14T02:09:35.496Z,21.98
2017-05-14T02:10:48.293Z,21.93
2017-05-14T02:12:01.083Z,21.99
2017-05-14T02:13:13.397Z,22.02
2017-05-14T02:14:26.389Z,22.04
2017-05-14T02:15:39.184Z,22.08
2017-05-14T02:16:51.974Z,22.02
2017-05-14T02:18:04.758Z,22.08
2017-05-14T02:19:17.060Z,22.02
2017-05-14T02:20:28.882Z,22.09
2017-05-14T02:21:41.191Z,22.11
2017-05-14T02:22:53.984Z,22.01
2017-05-14T02:24:06.768Z,22.02
2017-05-14T02:25:19.853Z,22.05
2017-05-14T02:26:32.649Z,22.02
2017-05-14T02:27:45.439Z,22.06
2017-05-14T02:28:58.233Z,22.08
2017-05-14T02:30:10.535Z,22.05
2017-05-14T02:31:23.618Z,22.02
2017-05-14T02:32:36.404Z,22.01
2017-05-14T02:33:49.190Z,22.01
2017-05-14T02:35:01.980Z,21.86
2017-05-14T02:36:14.582Z,21.94
2017-05-14T02:37:26.406Z,21.93
2017-05-14T02:38:39.191Z,21.91
2017-05-14T02:39:51.974Z,21.98
2017-05-14T02:41:04.770Z,21.94
2017-05-14T02:42:17.866Z,21.96
2017-05-14T02:43:30.664Z,21.91
2017-05-14T02:44:43.452Z,21.94
2017-05-14T02:45:56.236Z,21.89
2017-05-14T02:47:08.551Z,21.81
2017-05-14T02:48:20.859Z,21.91
2017-05-14T02:49:33.642Z,21.83
2017-05-14T02:50:46.425Z,21.86
2017-05-14T02:51:58.735Z,21.91
2017-05-14T02:53:11.524Z,21.81
2017-05-14T02:54:23.833Z,21.86
2017-05-14T02:55:36.613Z,21.91
2017-05-14T02:56:49.406Z,21.9
2017-05-14T02:58:02.400Z,21.91
2017-05-14T02:59:13.750Z,21.94
2017-05-14T03:00:26.540Z,21.96
2017-05-14T03:01:39.325Z,21.96
2017-05-14T03:02:52.175Z,21.98
2017-05-14T03:04:05.285Z,21.94
2017-05-14T03:05:17.710Z,21.93
2017-05-14T03:06:29.756Z,21.9
2017-05-14T03:07:42.805Z,21.98
2017-05-14T03:08:56.057Z,21.94
2017-05-14T03:10:08.099Z,21.99
2017-05-14T03:11:20.688Z,21.94
2017-05-14T03:12:33.734Z,21.9
2017-05-14T03:13:46.785Z,21.89
2017-05-14T03:14:59.532Z,21.79
2017-05-14T03:16:12.575Z,21.85
2017-05-14T03:17:25.621Z,21.73
2017-05-14T03:18:38.664Z,21.86
2017-05-14T03:19:51.212Z,21.75
2017-05-14T03:21:04.260Z,21.86
2017-05-14T03:22:16.304Z,21.81
2017-05-14T03:23:28.852Z,21.77
2017-05-14T03:24:41.899Z,21.82
2017-05-14T03:26:22.985Z,21.79
2017-05-14T03:27:36.028Z,21.86
2017-05-14T03:28:48.575Z,21.77
2017-05-14T03:30:01.616Z,21.83
2017-05-14T03:31:14.164Z,21.83
2017-05-14T03:32:27.210Z,21.73
2017-05-14T03:33:40.255Z,21.85
2017-05-14T03:34:53.304Z,21.79
2017-05-14T03:36:05.849Z,21.86
2017-05-14T03:37:18.910Z,21.82
2017-05-14T03:38:31.965Z,21.83
2017-05-14T03:39:44.510Z,21.81
2017-05-14T03:40:57.686Z,21.81
2017-05-14T03:42:10.593Z,21.73
2017-05-14T03:43:23.001Z,21.74
2017-05-14T03:44:35.904Z,21.81
2017-05-14T03:45:48.318Z,21.77
2017-05-14T03:47:01.041Z,21.81
2017-05-14T03:48:13.963Z,21.82
2017-05-14T03:49:26.885Z,21.77
2017-05-14T03:50:39.809Z,21.9
2017-05-14T03:51:52.730Z,21.79
2017-05-14T03:53:05.658Z,21.82
2017-05-14T03:54:18.580Z,21.83
2017-05-14T03:55:31.498Z,21.83
2017-05-14T03:56:44.422Z,21.81
2017-05-14T03:57:57.341Z,21.83
2017-05-14T03:59:10.262Z,21.74
2017-05-14T04:00:22.693Z,21.73
2017-05-14T04:01:35.614Z,21.7
2017-05-14T04:02:48.735Z,21.75
2017-05-14T04:04:01.661Z,21.74
2017-05-14T04:05:14.586Z,21.75
2017-05-14T04:06:27.019Z,21.79
2017-05-14T04:07:39.940Z,21.82
2017-05-14T04:08:52.375Z,21.83
2017-05-14T04:10:05.295Z,21.93
2017-05-14T04:11:17.234Z,21.89
2017-05-14T04:12:30.154Z,21.81
2017-05-14T04:13:43.077Z,21.86
2017-05-14T04:14:56.013Z,21.83
2017-05-14T04:16:08.937Z,21.7
2017-05-14T04:17:21.366Z,21.68
2017-05-14T04:18:33.800Z,21.64
2017-05-14T04:19:46.728Z,21.7
2017-05-14T04:20:59.651Z,21.64
2017-05-14T04:22:12.574Z,21.7
2017-05-14T04:23:25.497Z,21.79
2017-05-14T04:24:38.615Z,21.74
2017-05-14T04:25:51.051Z,21.66
2017-05-14T04:27:03.487Z,21.81
2017-05-14T04:28:15.916Z,21.82
2017-05-14T04:29:28.847Z,21.73
2017-05-14T04:30:41.973Z,21.86
2017-05-14T04:31:54.881Z,21.79
2017-05-14T04:33:07.789Z,21.68
2017-05-14T04:34:20.700Z,21.74
2017-05-14T04:35:33.798Z,21.7
2017-05-14T04:36:46.696Z,21.58
2017-05-14T04:37:59.596Z,21.67
2017-05-14T04:39:12.497Z,21.61
2017-05-14T04:40:25.392Z,21.61
2017-05-14T04:41:38.531Z,21.63
2017-05-14T04:42:51.476Z,21.61
2017-05-14T04:44:04.382Z,21.51
2017-05-14T04:45:16.310Z,21.53
2017-05-14T04:46:29.409Z,21.51
2017-05-14T04:47:41.818Z,21.49
2017-05-14T04:48:54.734Z,21.49
2017-05-14T04:50:07.145Z,21.55
2017-05-14T04:51:20.044Z,21.51
2017-05-14T04:52:33.147Z,21.53
2017-05-14T04:53:46.045Z,21.51
2017-05-14T04:54:58.459Z,21.51
2017-05-14T04:56:10.377Z,21.49
2017-05-14T04:57:23.493Z,21.61
2017-05-14T04:58:36.396Z,21.55
2017-05-14T04:59:49.296Z,21.63
2017-05-14T05:01:02.202Z,21.64
2017-05-14T05:02:13.633Z,21.58
2017-05-14T05:03:26.089Z,21.58
2017-05-14T05:04:38.997Z,21.59
2017-05-14T05:05:51.408Z,21.68
2017-05-14T05:07:04.306Z,21.58
2017-05-14T05:08:16.917Z,21.52
2017-05-14T05:09:29.327Z,21.53
2017-05-14T05:10:42.224Z,21.63
2017-05-14T05:11:55.131Z,21.61
2017-05-14T05:13:08.033Z,21.56
2017-05-14T05:14:20.945Z,21.58
2017-05-14T05:15:33.409Z,21.61
2017-05-14T05:16:45.818Z,21.66
2017-05-14T05:17:58.620Z,21.59
2017-05-14T05:19:11.222Z,21.56
2017-05-14T05:20:24.008Z,21.55
2017-05-14T05:21:36.794Z,21.56
2017-05-14T05:22:49.586Z,21.49
2017-05-14T05:24:02.370Z,21.51
2017-05-14T05:25:15.155Z,21.56
2017-05-14T05:26:27.946Z,21.51
2017-05-14T05:27:40.731Z,21.56
2017-05-14T05:28:53.525Z,21.48
2017-05-14T05:30:06.609Z,21.49
2017-05-14T05:31:18.914Z,21.51
2017-05-14T05:32:31.705Z,21.52
2017-05-14T05:33:44.502Z,21.49
2017-05-14T05:34:57.297Z,21.48
2017-05-14T05:36:09.598Z,21.55
2017-05-14T05:37:21.899Z,21.46
2017-05-14T05:38:34.211Z,21.38
2017-05-14T05:39:47.002Z,21.56
2017-05-14T05:41:00.087Z,21.52
2017-05-14T05:42:12.871Z,21.61
2017-05-14T05:43:25.654Z,21.64
2017-05-14T05:44:38.443Z,21.67
2017-05-14T05:45:51.229Z,21.68
2017-05-14T05:47:17.605Z,21.67
2017-05-14T05:48:30.394Z,21.67
2017-05-14T05:49:43.189Z,21.7
2017-05-14T05:50:55.989Z,21.61
2017-05-14T05:52:08.351Z,21.63
2017-05-14T05:53:20.661Z,21.7
2017-05-14T05:54:33.450Z,21.66
2017-05-14T05:55:46.242Z,21.66
2017-05-14T05:56:59.024Z,21.67
2017-05-14T05:58:12.161Z,21.66
2017-05-14T05:59:24.942Z,21.67
2017-05-14T06:00:37.737Z,21.63
2017-05-14T06:01:50.522Z,21.74
2017-05-14T06:03:02.823Z,21.75
2017-05-14T06:04:15.609Z,21.82
2017-05-14T06:05:27.914Z,21.79
2017-05-14T06:06:40.710Z,21.85
2017-05-14T06:07:53.019Z,21.82
2017-05-14T06:09:05.324Z,21.81
2017-05-14T06:10:17.632Z,21.9
2017-05-14T06:11:30.423Z,21.82
2017-05-14T06:12:43.246Z,21.79
2017-05-14T06:13:56.231Z,21.74
2017-05-14T06:15:08.531Z,21.83
2017-05-14T06:16:20.841Z,21.75
2017-05-14T06:17:33.627Z,21.82
2017-05-14T06:18:45.927Z,21.82
2017-05-14T06:19:58.720Z,21.81
2017-05-14T06:21:11.513Z,21.89
2017-05-14T06:22:24.305Z,21.91
2017-05-14T06:23:36.610Z,21.98
2017-05-14T06:24:49.695Z,21.89
2017-05-14T06:26:02.000Z,22.01
2017-05-14T06:27:14.351Z,22.04
2017-05-14T06:28:27.137Z,21.99
2017-05-14T06:29:39.923Z,21.99
2017-05-14T06:30:52.913Z,22.04
2017-05-14T06:32:05.706Z,22.05
2017-05-14T06:33:17.530Z,22.05
2017-05-14T06:34:30.314Z,22.02
2017-05-14T06:35:43.402Z,21.99
2017-05-14T06:36:56.201Z,21.9
2017-05-14T06:38:08.998Z,22.09
2017-05-14T06:39:21.786Z,22.06
2017-05-14T06:40:34.576Z,21.93
2017-05-14T06:41:47.667Z,21.99
2017-05-14T06:42:59.973Z,22.02
2017-05-14T06:44:12.277Z,22.01
2017-05-14T06:45:24.579Z,22.09
2017-05-14T06:46:37.580Z,21.96
2017-05-14T06:47:50.497Z,21.91
2017-05-14T06:49:03.420Z,21.96
2017-05-14T06:50:16.342Z,21.91
2017-05-14T06:51:29.259Z,21.89
2017-05-14T06:52:42.479Z,21.83
2017-05-14T06:53:55.397Z,21.83
2017-05-14T06:55:08.336Z,21.83
2017-05-14T06:56:20.764Z,21.79
2017-05-14T06:57:33.689Z,21.79
2017-05-14T06:58:46.126Z,21.81
2017-05-14T06:59:59.048Z,21.81
2017-05-14T07:01:11.478Z,21.83
2017-05-14T07:02:24.398Z,21.79
2017-05-14T07:03:37.518Z,21.73
2017-05-14T07:04:50.438Z,21.64
2017-05-14T07:06:03.355Z,21.71
2017-05-14T07:07:16.279Z,21.68
2017-05-14T07:08:29.020Z,21.66
2017-05-14T07:09:41.946Z,21.7
2017-05-14T07:10:54.872Z,21.67
2017-05-14T07:12:07.789Z,21.63
2017-05-14T07:13:20.217Z,21.66
2017-05-14T07:14:33.442Z,21.59
2017-05-14T07:15:45.875Z,21.63
2017-05-14T07:16:58.791Z,21.59
2017-05-14T07:18:11.709Z,21.64
2017-05-14T07:19:24.337Z,21.66
2017-05-14T07:20:37.261Z,21.64
2017-05-14T07:21:49.686Z,21.67
2017-05-14T07:23:02.611Z,21.66
2017-05-14T07:24:15.035Z,21.73
2017-05-14T07:25:27.954Z,21.66
2017-05-14T07:26:40.878Z,21.68
2017-05-14T07:27:53.304Z,21.74
2017-05-14T07:29:06.220Z,21.67
2017-05-14T07:30:18.950Z,21.66
2017-05-14T07:31:31.870Z,21.63
2017-05-14T07:32:44.662Z,21.71
2017-05-14T07:33:57.448Z,21.74
2017-05-14T07:35:09.752Z,21.79
2017-05-14T07:36:22.833Z,21.74
2017-05-14T07:37:35.630Z,21.77
2017-05-14T07:38:48.420Z,21.77
2017-05-14T07:40:01.209Z,21.85
2017-05-14T07:41:13.331Z,21.86
2017-05-14T07:42:25.630Z,21.91
2017-05-14T07:43:38.482Z,21.94
2017-05-14T07:44:51.316Z,21.91
2017-05-14T07:46:04.107Z,22.02
2017-05-14T07:47:16.898Z,22.04
2017-05-14T07:48:29.688Z,22.02
2017-05-14T07:49:42.477Z,22.01
2017-05-14T07:50:55.264Z,22.04
2017-05-14T07:52:08.347Z,22.09
2017-05-14T07:53:20.175Z,22.15
2017-05-14T07:54:32.970Z,22.09
2017-05-14T07:55:45.767Z,22.19
2017-05-14T07:56:58.547Z,22.3
2017-05-14T07:58:11.335Z,22.29
2017-05-14T07:59:24.136Z,22.29
2017-05-14T08:00:36.917Z,22.35
2017-05-14T08:01:49.699Z,22.38
2017-05-14T08:03:02.483Z,22.44
2017-05-14T08:04:15.273Z,22.44
2017-05-14T08:05:28.071Z,22.48
2017-05-14T08:06:40.375Z,22.48
2017-05-14T08:07:53.171Z,22.45
2017-05-14T08:09:05.961Z,22.46
2017-05-14T08:10:18.749Z,22.49
2017-05-14T08:11:31.053Z,22.48
2017-05-14T08:12:43.834Z,22.59
2017-05-14T08:14:10.213Z,22.6
2017-05-14T08:15:22.567Z,22.6
2017-05-14T08:16:35.356Z,22.57
2017-05-14T08:17:47.655Z,22.6
2017-05-14T08:18:59.956Z,22.66
2017-05-14T08:20:12.746Z,22.72
2017-05-14T08:21:25.536Z,22.7
2017-05-14T08:22:38.320Z,22.75
2017-05-14T08:23:50.639Z,22.72
2017-05-14T08:25:03.426Z,22.82
2017-05-14T08:26:15.734Z,22.76
2017-05-14T08:27:28.528Z,22.84
2017-05-14T08:28:41.313Z,22.84
2017-05-14T08:29:54.101Z,22.79
2017-05-14T08:31:06.893Z,22.81
2017-05-14T08:32:19.722Z,22.81
2017-05-14T08:33:32.505Z,22.74
2017-05-14T08:34:44.809Z,22.81
2017-05-14T08:35:57.323Z,22.84
2017-05-14T08:37:09.630Z,22.91
2017-05-14T08:38:21.939Z,22.86
2017-05-14T08:39:34.735Z,22.86
2017-05-14T08:40:46.078Z,22.85
2017-05-14T08:41:58.869Z,22.88
2017-05-14T08:43:11.177Z,22.91
2017-05-14T08:44:23.967Z,22.84
2017-05-14T08:45:36.756Z,22.91
2017-05-14T08:46:49.265Z,22.86
2017-05-14T08:48:02.052Z,22.86
2017-05-14T08:49:14.834Z,22.85
2017-05-14T08:50:27.616Z,22.89
2017-05-14T08:51:39.922Z,22.86
2017-05-14T08:52:52.714Z,22.89
2017-05-14T08:54:05.546Z,22.84
2017-05-14T08:55:17.369Z,22.88
2017-05-14T08:56:30.156Z,22.91
2017-05-14T08:57:43.145Z,22.91
2017-05-14T08:58:55.452Z,22.96
2017-05-14T09:00:08.240Z,22.97
2017-05-14T09:01:21.030Z,22.82
2017-05-14T09:02:33.359Z,22.85
2017-05-14T09:03:46.142Z,22.93
2017-05-14T09:04:58.923Z,22.91
2017-05-14T09:06:11.225Z,22.82
2017-05-14T09:07:23.050Z,22.88
2017-05-14T09:08:35.886Z,22.86
2017-05-14T09:09:48.187Z,22.99
2017-05-14T09:11:00.983Z,22.89
2017-05-14T09:12:13.290Z,22.86
2017-05-14T09:13:25.900Z,22.89
2017-05-14T09:14:38.205Z,22.88
2017-05-14T09:15:50.514Z,22.89
2017-05-14T09:17:02.822Z,22.85
2017-05-14T09:18:15.129Z,22.85
2017-05-14T09:19:27.911Z,22.72
2017-05-14T09:20:40.217Z,22.84
2017-05-14T09:21:52.520Z,22.89
2017-05-14T09:23:05.322Z,22.85
2017-05-14T09:24:17.681Z,22.86
2017-05-14T09:25:30.463Z,22.89
2017-05-14T09:26:43.295Z,22.86
2017-05-14T09:27:56.104Z,22.89
2017-05-14T09:29:08.891Z,22.89
2017-05-14T09:30:21.678Z,23.06
2017-05-14T09:31:34.461Z,22.89
2017-05-14T09:32:46.772Z,22.96
2017-05-14T09:33:59.560Z,22.96
2017-05-14T09:35:12.341Z,23.12
2017-05-14T09:36:25.139Z,23.01
2017-05-14T09:37:37.449Z,22.99
2017-05-14T09:38:49.815Z,22.96
2017-05-14T09:40:02.599Z,23.04
2017-05-14T09:41:15.207Z,22.99
2017-05-14T09:42:28.002Z,23.07
2017-05-14T09:43:39.832Z,23.09
2017-05-14T09:44:52.625Z,23.07
2017-05-14T09:46:05.407Z,23.01
2017-05-14T09:47:17.777Z,23.07
2017-05-14T09:48:29.698Z,23.01
2017-05-14T09:49:42.595Z,23.04
2017-05-14T09:50:55.494Z,23.04
2017-05-14T09:52:07.957Z,23.07
2017-05-14T09:53:20.861Z,23.09
2017-05-14T09:54:33.764Z,23.01
2017-05-14T09:55:46.176Z,22.99
2017-05-14T09:56:59.415Z,23.04
2017-05-14T09:58:11.909Z,23.07
2017-05-14T09:59:24.396Z,23.09
2017-05-14T10:00:37.380Z,23.11
2017-05-14T10:01:49.871Z,23.18
2017-05-14T10:03:02.360Z,23.12
2017-05-14T10:04:15.343Z,23.07
2017-05-14T10:05:27.833Z,23.06
2017-05-14T10:06:40.814Z,23.09
2017-05-14T10:07:54.113Z,23.03
2017-05-14T10:09:07.149Z,23.07
2017-05-14T10:10:20.141Z,23.16
2017-05-14T10:11:33.127Z,22.99
2017-05-14T10:12:46.115Z,22.99
2017-05-14T10:13:58.914Z,23
2017-05-14T10:15:10.908Z,23.04
2017-05-14T10:16:23.398Z,23.06
2017-05-14T10:17:36.389Z,23.09
2017-05-14T10:18:49.675Z,23.01
2017-05-14T10:20:02.657Z,23.03
2017-05-14T10:21:15.146Z,23.14
2017-05-14T10:22:28.132Z,23.15
2017-05-14T10:23:40.621Z,23.16
2017-05-14T10:24:53.313Z,23.23
2017-05-14T10:26:05.803Z,23.31
2017-05-14T10:27:17.797Z,23.22
2017-05-14T10:28:30.284Z,23.23
2017-05-14T10:29:43.272Z,23.23
2017-05-14T10:30:56.255Z,23.29
2017-05-14T10:32:08.714Z,23.26
2017-05-14T10:33:20.632Z,23.34
2017-05-14T10:34:33.038Z,23.26
2017-05-14T10:35:45.939Z,23.25
2017-05-14T10:36:58.841Z,23.23
2017-05-14T10:38:11.258Z,23.23
2017-05-14T10:39:24.158Z,23.19
2017-05-14T10:40:37.354Z,23.09
2017-05-14T10:41:49.799Z,22.99
2017-05-14T10:43:02.697Z,22.97
2017-05-14T10:44:15.113Z,22.93
2017-05-14T10:45:27.526Z,22.99
2017-05-14T10:46:40.433Z,22.88
2017-05-14T10:47:52.849Z,22.85
2017-05-14T10:49:05.756Z,22.72
2017-05-14T10:50:17.681Z,22.66
2017-05-14T10:51:30.785Z,22.63
2017-05-14T10:52:43.687Z,22.52
2017-05-14T10:53:56.593Z,22.48
2017-05-14T10:55:08.527Z,22.33
2017-05-14T10:56:20.456Z,22.2
2017-05-14T10:57:33.360Z,22.14
2017-05-14T10:58:46.260Z,22.01
2017-05-14T10:59:59.157Z,21.93
2017-05-14T11:01:11.569Z,21.91
2017-05-14T11:02:24.786Z,21.93
2017-05-14T11:03:37.684Z,21.79
2017-05-14T11:04:50.586Z,21.71
2017-05-14T11:06:03.488Z,21.64
2017-05-14T11:07:15.407Z,21.61
2017-05-14T11:08:28.061Z,21.58
2017-05-14T11:09:39.497Z,21.48
2017-05-14T11:10:51.912Z,21.43
2017-05-14T11:12:04.328Z,21.46
2017-05-14T11:13:16.247Z,21.48
2017-05-14T11:14:29.146Z,21.37
2017-05-14T11:15:42.044Z,21.38
2017-05-14T11:16:53.974Z,21.26
2017-05-14T11:18:06.890Z,21.34
2017-05-14T11:19:18.826Z,21.3
2017-05-14T11:20:31.750Z,21.28
2017-05-14T11:21:44.216Z,21.3
2017-05-14T11:22:57.143Z,21.31
2017-05-14T11:24:09.876Z,21.31
2017-05-14T11:25:22.797Z,21.21
2017-05-14T11:26:35.716Z,21.11
2017-05-14T11:27:48.635Z,21.08
2017-05-14T11:29:01.062Z,21.03
2017-05-14T11:30:13.696Z,20.98
2017-05-14T11:31:26.615Z,21.03
2017-05-14T11:32:39.542Z,20.88
2017-05-14T11:33:51.967Z,20.72
2017-05-14T11:35:04.597Z,20.76
2017-05-14T11:36:16.537Z,20.79
2017-05-14T11:37:29.455Z,20.72
2017-05-14T11:38:42.375Z,20.78
2017-05-14T11:39:55.296Z,20.76
2017-05-14T11:41:07.757Z,20.81
2017-05-14T11:42:19.743Z,20.71
2017-05-14T11:43:32.168Z,20.75
2017-05-14T11:44:45.087Z,20.72
2017-05-14T11:45:57.230Z,20.78
2017-05-14T11:47:09.657Z,20.82
2017-05-14T11:48:22.583Z,20.76
2017-05-14T11:49:35.013Z,20.76
2017-05-14T11:50:47.930Z,20.76
2017-05-14T11:52:00.558Z,20.81
2017-05-14T11:53:13.482Z,20.69
2017-05-14T11:54:26.401Z,20.75
2017-05-14T11:55:39.336Z,20.85
2017-05-14T11:56:52.457Z,20.9
2017-05-14T11:58:04.885Z,20.98
2017-05-14T11:59:17.324Z,21.06
2017-05-14T12:00:30.241Z,21.18
2017-05-14T12:01:43.085Z,21.34
2017-05-14T12:02:55.873Z,21.27
2017-05-14T12:04:08.655Z,21.24
2017-05-14T12:05:20.957Z,21.09
2017-05-14T12:06:33.740Z,21.19
2017-05-14T12:07:46.822Z,21.24
2017-05-14T12:08:59.604Z,21.22
2017-05-14T12:10:12.386Z,21.31
2017-05-14T12:11:25.171Z,21.36
2017-05-14T12:12:36.990Z,21.36
2017-05-14T12:13:49.777Z,21.43
2017-05-14T12:15:02.152Z,21.49
2017-05-14T12:16:15.020Z,21.38
2017-05-14T12:17:27.395Z,21.34
2017-05-14T12:18:40.466Z,21.36
2017-05-14T12:19:53.330Z,21.34
2017-05-14T12:21:06.190Z,21.37
2017-05-14T12:22:19.056Z,21.38
2017-05-14T12:23:31.922Z,21.4
2017-05-14T12:24:44.497Z,21.38
2017-05-14T12:25:57.364Z,21.31
2017-05-14T12:27:10.236Z,21.38
2017-05-14T12:28:23.115Z,21.37
2017-05-14T12:29:35.983Z,21.38
2017-05-14T12:30:48.857Z,21.43
2017-05-14T12:32:01.719Z,21.38
2017-05-14T12:33:14.592Z,21.38
2017-05-14T12:34:27.461Z,21.3
2017-05-14T12:35:40.325Z,21.33
2017-05-14T12:36:53.188Z,21.4
2017-05-14T12:38:05.076Z,21.31
2017-05-14T12:39:17.452Z,21.31
2017-05-14T12:40:30.319Z,21.3
2017-05-14T12:41:43.183Z,21.27
2017-05-14T12:42:56.047Z,21.27
2017-05-14T12:44:07.937Z,21.31
2017-05-14T12:45:20.807Z,21.33
2017-05-14T12:46:33.438Z,21.36
2017-05-14T12:47:46.420Z,21.36
2017-05-14T12:48:59.401Z,21.37
2017-05-14T12:50:11.890Z,21.43
2017-05-14T12:51:24.876Z,21.58
2017-05-14T12:52:37.906Z,21.63
2017-05-14T12:53:50.893Z,21.63
2017-05-14T12:55:03.383Z,21.67
2017-05-14T12:56:16.370Z,21.52
2017-05-14T12:57:29.752Z,21.55
2017-05-14T12:58:42.738Z,21.59
2017-05-14T12:59:55.719Z,21.63
2017-05-14T13:01:08.213Z,21.66
2017-05-14T13:02:20.205Z,21.66
2017-05-14T13:03:33.189Z,21.75
2017-05-14T13:04:46.171Z,21.75
2017-05-14T13:05:59.155Z,21.83
2017-05-14T13:07:11.643Z,21.74
2017-05-14T13:08:24.628Z,21.7
2017-05-14T13:09:37.610Z,21.64
2017-05-14T13:10:50.595Z,21.68
2017-05-14T13:12:02.590Z,21.7
2017-05-14T13:13:14.087Z,21.68
2017-05-14T13:14:26.621Z,21.82
2017-05-14T13:15:39.614Z,21.83
2017-05-14T13:16:52.603Z,21.64
2017-05-14T13:18:05.092Z,21.66
2017-05-14T13:19:17.784Z,21.61
2017-05-14T13:20:30.767Z,21.68
2017-05-14T13:21:43.750Z,21.74
2017-05-14T13:22:56.695Z,21.86
2017-05-14T13:24:09.788Z,21.83
2017-05-14T13:25:22.687Z,21.77
2017-05-14T13:26:35.587Z,21.98
2017-05-14T13:27:48.489Z,21.98
2017-05-14T13:29:01.387Z,22.06
2017-05-14T13:30:28.341Z,22.06
2017-05-14T13:31:41.252Z,22.11
2017-05-14T13:32:54.170Z,22.19
2017-05-14T13:34:07.089Z,22.2
2017-05-14T13:35:18.536Z,22.33
2017-05-14T13:36:31.463Z,22.27
2017-05-14T13:37:44.386Z,22.24
2017-05-14T13:38:57.306Z,22.3
2017-05-14T13:40:10.228Z,22.42
2017-05-14T13:41:23.165Z,22.38
2017-05-14T13:42:36.091Z,22.51
2017-05-14T13:43:49.012Z,22.44
2017-05-14T13:45:01.933Z,22.41
2017-05-14T13:46:14.857Z,22.48
2017-05-14T13:47:27.779Z,22.49
2017-05-14T13:48:40.694Z,22.41
2017-05-14T13:49:53.613Z,22.11
2017-05-14T13:51:06.538Z,22.24
2017-05-14T13:52:19.458Z,22.3
2017-05-14T13:53:31.395Z,22.12
2017-05-14T13:54:44.318Z,22.23
2017-05-14T13:55:57.240Z,22.17
2017-05-14T13:57:09.180Z,22.04
2017-05-14T13:58:21.609Z,21.99
2017-05-14T13:59:34.527Z,22.02
2017-05-14T14:00:46.958Z,22.01
2017-05-14T14:02:00.184Z,21.99
2017-05-14T14:03:13.108Z,21.67
2017-05-14T14:04:26.038Z,21.64
2017-05-14T14:05:38.959Z,21.7
2017-05-14T14:06:51.880Z,21.67
2017-05-14T14:08:04.612Z,21.79
2017-05-14T14:09:17.039Z,21.73
2017-05-14T14:10:29.960Z,21.79
2017-05-14T14:11:42.878Z,21.81
2017-05-14T14:12:55.605Z,21.83
2017-05-14T14:14:08.034Z,21.91
2017-05-14T14:15:20.953Z,21.96
2017-05-14T14:16:33.803Z,21.93
2017-05-14T14:17:46.590Z,21.96
2017-05-14T14:18:59.575Z,21.91
2017-05-14T14:20:11.399Z,21.93
2017-05-14T14:21:24.182Z,22.02
2017-05-14T14:22:36.967Z,21.94
2017-05-14T14:23:49.954Z,21.98
2017-05-14T14:25:02.747Z,21.99
2017-05-14T14:26:15.533Z,22.01
2017-05-14T14:27:28.320Z,22.01
2017-05-14T14:28:41.112Z,21.99
2017-05-14T14:29:54.093Z,22.04
2017-05-14T14:31:05.925Z,22.05
2017-05-14T14:32:18.712Z,21.99
2017-05-14T14:33:31.502Z,22.19
2017-05-14T14:34:44.288Z,22.08
2017-05-14T14:35:57.072Z,22.11
2017-05-14T14:37:09.382Z,22.17
2017-05-14T14:38:22.210Z,22.12
2017-05-14T14:39:34.516Z,22.15
2017-05-14T14:40:47.503Z,22.01
2017-05-14T14:41:59.804Z,22.08
2017-05-14T14:43:12.588Z,22.06
2017-05-14T14:44:24.891Z,22.02
2017-05-14T14:45:37.982Z,22.08
2017-05-14T14:46:50.769Z,22.15
2017-05-14T14:48:03.074Z,22.12
2017-05-14T14:49:15.381Z,22.02
2017-05-14T14:50:28.176Z,22.09
2017-05-14T14:51:40.973Z,22.15
2017-05-14T14:52:53.759Z,22.23
2017-05-14T14:54:06.550Z,22.26
2017-05-14T14:55:18.879Z,22.42
2017-05-14T14:56:31.975Z,22.27
2017-05-14T14:57:44.765Z,22.39
2017-05-14T14:58:57.548Z,22.42
2017-05-14T15:00:10.331Z,22.38
2017-05-14T15:01:23.116Z,22.42
2017-05-14T15:02:36.334Z,22.51
2017-05-14T15:03:48.760Z,22.56
2017-05-14T15:05:01.191Z,22.59
2017-05-14T15:06:13.668Z,22.46
2017-05-14T15:07:26.589Z,22.52
2017-05-14T15:08:39.021Z,22.52
2017-05-14T15:09:51.943Z,22.59
2017-05-14T15:11:04.372Z,22.6
2017-05-14T15:12:17.304Z,22.63
2017-05-14T15:13:30.232Z,22.72
2017-05-14T15:14:43.175Z,22.76
2017-05-14T15:15:56.095Z,22.84
2017-05-14T15:17:09.020Z,22.75
2017-05-14T15:18:21.755Z,22.78
2017-05-14T15:19:34.196Z,22.78
2017-05-14T15:20:47.144Z,22.79
2017-05-14T15:22:00.082Z,22.79
2017-05-14T15:23:13.036Z,22.74
2017-05-14T15:24:26.218Z,22.64
2017-05-14T15:25:39.240Z,22.78
2017-05-14T15:26:52.283Z,22.85
2017-05-14T15:28:05.219Z,22.88
2017-05-14T15:29:17.851Z,22.82
2017-05-14T15:30:30.772Z,22.82
2017-05-14T15:31:43.692Z,22.85
2017-05-14T15:32:56.617Z,22.93
2017-05-14T15:34:09.044Z,22.99
2017-05-14T15:35:21.972Z,23.01
2017-05-14T15:36:34.403Z,22.96
2017-05-14T15:37:46.831Z,23
2017-05-14T15:38:59.755Z,23.01
2017-05-14T15:40:12.678Z,23.12